sensor_id;sensor_type;location;lat;lon;timestamp;temperature;humidity
50548;DHT22;38013;48.810;8.818;2023-03-17T00:01:53;7.50;59.10
50548;DHT22;38013;48.810;8.818;2023-03-17T00:04:25;7.50;59.20
50548;DHT22;38013;48.810;8.818;2023-03-17T00:06:53;7.50;59.50
50548;DHT22;38013;48.810;8.818;2023-03-17T00:09:20;7.40;59.30
50548;DHT22;38013;48.810;8.818;2023-03-17T00:11:48;7.40;59.30
50548;DHT22;38013;48.810;8.818;2023-03-17T00:14:16;7.40;59.40
50548;DHT22;38013;48.810;8.818;2023-03-17T00:16:48;7.40;59.40
50548;DHT22;38013;48.810;8.818;2023-03-17T00:19:30;7.40;59.50
50548;DHT22;38013;48.810;8.818;2023-03-17T00:22:00;7.40;59.90
50548;DHT22;38013;48.810;8.818;2023-03-17T00:24:28;7.30;59.40
50548;DHT22;38013;48.810;8.818;2023-03-17T00:26:55;7.40;59.40
50548;DHT22;38013;48.810;8.818;2023-03-17T00:29:22;7.40;59.40
50548;DHT22;38013;48.810;8.818;2023-03-17T00:31:49;7.30;59.50
50548;DHT22;38013;48.810;8.818;2023-03-17T00:34:21;7.30;59.40
50548;DHT22;38013;48.810;8.818;2023-03-17T00:36:49;7.40;59.50
50548;DHT22;38013;48.810;8.818;2023-03-17T00:39:17;7.40;59.50
50548;DHT22;38013;48.810;8.818;2023-03-17T00:41:45;7.40;59.40
50548;DHT22;38013;48.810;8.818;2023-03-17T00:44:10;7.40;59.40
50548;DHT22;38013;48.810;8.818;2023-03-17T00:46:38;7.40;59.30
50548;DHT22;38013;48.810;8.818;2023-03-17T00:49:20;7.40;59.20
50548;DHT22;38013;48.810;8.818;2023-03-17T00:51:49;7.40;59.10
50548;DHT22;38013;48.810;8.818;2023-03-17T00:54:18;7.40;59.00
50548;DHT22;38013;48.810;8.818;2023-03-17T00:56:47;7.50;59.00
50548;DHT22;38013;48.810;8.818;2023-03-17T00:59:37;7.50;58.90
50548;DHT22;38013;48.810;8.818;2023-03-17T01:02:10;7.50;59.10
50548;DHT22;38013;48.810;8.818;2023-03-17T01:04:39;7.50;58.70
50548;DHT22;38013;48.810;8.818;2023-03-17T01:07:07;7.60;58.70
50548;DHT22;38013;48.810;8.818;2023-03-17T01:09:36;7.50;58.60
50548;DHT22;38013;48.810;8.818;2023-03-17T01:12:03;7.60;58.50
50548;DHT22;38013;48.810;8.818;2023-03-17T01:14:31;7.60;58.30
50548;DHT22;38013;48.810;8.818;2023-03-17T01:16:59;7.70;58.30
50548;DHT22;38013;48.810;8.818;2023-03-17T01:19:26;7.60;58.20
50548;DHT22;38013;48.810;8.818;2023-03-17T01:21:53;7.60;58.30
50548;DHT22;38013;48.810;8.818;2023-03-17T01:24:20;7.70;58.30
50548;DHT22;38013;48.810;8.818;2023-03-17T01:26:47;7.70;58.30
50548;DHT22;38013;48.810;8.818;2023-03-17T01:29:14;7.70;58.30
50548;DHT22;38013;48.810;8.818;2023-03-17T01:31:41;7.70;58.10
50548;DHT22;38013;48.810;8.818;2023-03-17T01:34:09;7.70;58.10
50548;DHT22;38013;48.810;8.818;2023-03-17T01:36:36;7.70;58.10
50548;DHT22;38013;48.810;8.818;2023-03-17T01:39:03;7.70;58.10
50548;DHT22;38013;48.810;8.818;2023-03-17T01:41:34;7.70;58.00
50548;DHT22;38013;48.810;8.818;2023-03-17T01:44:02;7.70;58.00
50548;DHT22;38013;48.810;8.818;2023-03-17T01:46:31;7.70;58.00
50548;DHT22;38013;48.810;8.818;2023-03-17T01:55:17;7.70;57.90
50548;DHT22;38013;48.810;8.818;2023-03-17T01:57:44;7.70;57.80
50548;DHT22;38013;48.810;8.818;2023-03-17T02:00:19;7.70;57.70
50548;DHT22;38013;48.810;8.818;2023-03-17T02:02:53;7.60;57.70
50548;DHT22;38013;48.810;8.818;2023-03-17T02:05:31;7.70;57.60
50548;DHT22;38013;48.810;8.818;2023-03-17T02:07:58;7.70;57.70
50548;DHT22;38013;48.810;8.818;2023-03-17T02:10:27;7.70;57.70
50548;DHT22;38013;48.810;8.818;2023-03-17T02:12:58;7.70;57.70
50548;DHT22;38013;48.810;8.818;2023-03-17T02:15:53;7.70;57.50
50548;DHT22;38013;48.810;8.818;2023-03-17T02:18:21;7.70;57.50
50548;DHT22;38013;48.810;8.818;2023-03-17T02:23:19;7.70;57.50
50548;DHT22;38013;48.810;8.818;2023-03-17T02:25:51;7.70;57.40
50548;DHT22;38013;48.810;8.818;2023-03-17T02:28:23;7.70;57.20
50548;DHT22;38013;48.810;8.818;2023-03-17T02:30:52;7.70;57.10
50548;DHT22;38013;48.810;8.818;2023-03-17T02:33:19;7.70;57.10
50548;DHT22;38013;48.810;8.818;2023-03-17T02:35:46;7.70;57.10
50548;DHT22;38013;48.810;8.818;2023-03-17T02:38:14;7.70;57.00
50548;DHT22;38013;48.810;8.818;2023-03-17T02:40:42;7.70;57.00
50548;DHT22;38013;48.810;8.818;2023-03-17T02:43:09;7.70;57.00
50548;DHT22;38013;48.810;8.818;2023-03-17T02:45:36;7.70;57.00
50548;DHT22;38013;48.810;8.818;2023-03-17T02:48:04;7.70;56.90
50548;DHT22;38013;48.810;8.818;2023-03-17T02:50:31;7.80;56.90
50548;DHT22;38013;48.810;8.818;2023-03-17T02:52:58;7.80;57.10
50548;DHT22;38013;48.810;8.818;2023-03-17T02:55:25;7.80;57.10
50548;DHT22;38013;48.810;8.818;2023-03-17T02:57:52;7.80;57.10
50548;DHT22;38013;48.810;8.818;2023-03-17T03:00:19;7.80;57.10
50548;DHT22;38013;48.810;8.818;2023-03-17T03:02:46;7.80;56.90
50548;DHT22;38013;48.810;8.818;2023-03-17T03:05:13;7.80;56.80
50548;DHT22;38013;48.810;8.818;2023-03-17T03:07:40;7.80;56.70
50548;DHT22;38013;48.810;8.818;2023-03-17T03:10:08;7.80;56.60
50548;DHT22;38013;48.810;8.818;2023-03-17T03:12:36;7.80;56.50
50548;DHT22;38013;48.810;8.818;2023-03-17T03:15:03;7.80;56.40
50548;DHT22;38013;48.810;8.818;2023-03-17T03:17:31;7.80;56.30
50548;DHT22;38013;48.810;8.818;2023-03-17T03:19:58;7.80;56.20
50548;DHT22;38013;48.810;8.818;2023-03-17T03:22:25;7.80;56.50
50548;DHT22;38013;48.810;8.818;2023-03-17T03:24:52;7.90;56.40
50548;DHT22;38013;48.810;8.818;2023-03-17T03:27:26;7.80;56.20
50548;DHT22;38013;48.810;8.818;2023-03-17T03:29:54;7.80;55.90
50548;DHT22;38013;48.810;8.818;2023-03-17T03:32:21;7.80;55.90
50548;DHT22;38013;48.810;8.818;2023-03-17T03:34:48;7.80;55.80
50548;DHT22;38013;48.810;8.818;2023-03-17T03:37:14;7.90;55.90
50548;DHT22;38013;48.810;8.818;2023-03-17T03:39:41;7.90;55.80
50548;DHT22;38013;48.810;8.818;2023-03-17T03:42:08;8.00;55.60
50548;DHT22;38013;48.810;8.818;2023-03-17T03:44:35;8.00;56.20
50548;DHT22;38013;48.810;8.818;2023-03-17T03:47:02;8.10;55.40
50548;DHT22;38013;48.810;8.818;2023-03-17T03:49:29;8.10;55.40
50548;DHT22;38013;48.810;8.818;2023-03-17T03:51:56;8.20;55.10
50548;DHT22;38013;48.810;8.818;2023-03-17T03:54:23;8.30;55.00
50548;DHT22;38013;48.810;8.818;2023-03-17T03:56:49;8.30;54.70
50548;DHT22;38013;48.810;8.818;2023-03-17T03:59:16;8.40;54.70
50548;DHT22;38013;48.810;8.818;2023-03-17T04:01:43;8.40;54.50
50548;DHT22;38013;48.810;8.818;2023-03-17T04:04:11;8.50;54.40
50548;DHT22;38013;48.810;8.818;2023-03-17T04:06:37;8.50;54.30
50548;DHT22;38013;48.810;8.818;2023-03-17T04:09:05;8.50;54.10
50548;DHT22;38013;48.810;8.818;2023-03-17T04:11:32;8.60;54.00
50548;DHT22;38013;48.810;8.818;2023-03-17T04:13:58;8.60;53.90
50548;DHT22;38013;48.810;8.818;2023-03-17T04:16:25;8.70;53.90
50548;DHT22;38013;48.810;8.818;2023-03-17T04:18:52;8.70;53.70
50548;DHT22;38013;48.810;8.818;2023-03-17T04:21:19;8.80;53.60
50548;DHT22;38013;48.810;8.818;2023-03-17T04:23:47;8.80;53.40
50548;DHT22;38013;48.810;8.818;2023-03-17T04:26:13;8.80;53.40
50548;DHT22;38013;48.810;8.818;2023-03-17T04:28:40;8.80;53.30
50548;DHT22;38013;48.810;8.818;2023-03-17T04:31:10;8.80;53.10
50548;DHT22;38013;48.810;8.818;2023-03-17T04:33:38;8.80;53.10
50548;DHT22;38013;48.810;8.818;2023-03-17T04:36:06;8.80;53.00
50548;DHT22;38013;48.810;8.818;2023-03-17T04:38:33;8.80;53.00
50548;DHT22;38013;48.810;8.818;2023-03-17T04:41:00;8.80;53.00
50548;DHT22;38013;48.810;8.818;2023-03-17T04:43:27;8.80;52.90
50548;DHT22;38013;48.810;8.818;2023-03-17T04:45:54;8.80;52.80
50548;DHT22;38013;48.810;8.818;2023-03-17T04:48:21;8.80;52.80
50548;DHT22;38013;48.810;8.818;2023-03-17T04:50:48;8.80;52.70
50548;DHT22;38013;48.810;8.818;2023-03-17T04:53:15;8.80;52.60
50548;DHT22;38013;48.810;8.818;2023-03-17T04:55:42;8.80;52.40
50548;DHT22;38013;48.810;8.818;2023-03-17T04:58:09;8.90;52.40
50548;DHT22;38013;48.810;8.818;2023-03-17T05:00:41;8.90;52.30
50548;DHT22;38013;48.810;8.818;2023-03-17T05:03:08;9.00;52.20
50548;DHT22;38013;48.810;8.818;2023-03-17T05:05:52;9.00;52.10
50548;DHT22;38013;48.810;8.818;2023-03-17T05:08:19;9.10;52.00
50548;DHT22;38013;48.810;8.818;2023-03-17T05:10:46;9.10;51.90
50548;DHT22;38013;48.810;8.818;2023-03-17T05:13:13;9.10;51.70
50548;DHT22;38013;48.810;8.818;2023-03-17T05:15:43;9.20;51.70
50548;DHT22;38013;48.810;8.818;2023-03-17T05:18:14;9.20;51.60
50548;DHT22;38013;48.810;8.818;2023-03-17T05:20:41;9.30;51.60
50548;DHT22;38013;48.810;8.818;2023-03-17T05:23:08;9.30;51.50
50548;DHT22;38013;48.810;8.818;2023-03-17T05:25:35;9.30;51.40
50548;DHT22;38013;48.810;8.818;2023-03-17T05:28:02;9.40;51.40
50548;DHT22;38013;48.810;8.818;2023-03-17T05:30:29;9.40;51.30
50548;DHT22;38013;48.810;8.818;2023-03-17T05:32:57;9.50;51.30
50548;DHT22;38013;48.810;8.818;2023-03-17T05:35:24;9.50;51.20
50548;DHT22;38013;48.810;8.818;2023-03-17T05:37:51;9.60;51.40
50548;DHT22;38013;48.810;8.818;2023-03-17T05:40:18;9.60;51.00
50548;DHT22;38013;48.810;8.818;2023-03-17T05:42:48;9.60;51.00
50548;DHT22;38013;48.810;8.818;2023-03-17T05:45:16;9.70;51.00
50548;DHT22;38013;48.810;8.818;2023-03-17T05:47:44;9.70;50.90
50548;DHT22;38013;48.810;8.818;2023-03-17T05:50:11;9.70;50.70
50548;DHT22;38013;48.810;8.818;2023-03-17T05:52:39;9.70;50.60
50548;DHT22;38013;48.810;8.818;2023-03-17T05:55:06;9.70;50.60
50548;DHT22;38013;48.810;8.818;2023-03-17T05:57:33;9.70;50.60
50548;DHT22;38013;48.810;8.818;2023-03-17T06:00:01;9.70;50.60
50548;DHT22;38013;48.810;8.818;2023-03-17T06:02:31;9.60;51.30
50548;DHT22;38013;48.810;8.818;2023-03-17T06:04:58;9.60;51.30
50548;DHT22;38013;48.810;8.818;2023-03-17T06:07:24;9.50;50.70
50548;DHT22;38013;48.810;8.818;2023-03-17T06:09:54;9.50;50.80
50548;DHT22;38013;48.810;8.818;2023-03-17T06:12:21;9.50;50.90
50548;DHT22;38013;48.810;8.818;2023-03-17T06:14:48;9.50;51.00
50548;DHT22;38013;48.810;8.818;2023-03-17T06:17:15;9.50;51.10
50548;DHT22;38013;48.810;8.818;2023-03-17T06:19:42;9.50;51.30
50548;DHT22;38013;48.810;8.818;2023-03-17T06:22:09;9.40;51.20
50548;DHT22;38013;48.810;8.818;2023-03-17T06:24:35;9.40;51.30
50548;DHT22;38013;48.810;8.818;2023-03-17T06:27:02;9.50;51.40
50548;DHT22;38013;48.810;8.818;2023-03-17T06:29:29;9.50;51.50
50548;DHT22;38013;48.810;8.818;2023-03-17T06:31:57;9.50;51.50
50548;DHT22;38013;48.810;8.818;2023-03-17T06:34:42;9.60;52.20
50548;DHT22;38013;48.810;8.818;2023-03-17T06:37:10;9.60;51.60
50548;DHT22;38013;48.810;8.818;2023-03-17T06:39:37;9.60;51.50
50548;DHT22;38013;48.810;8.818;2023-03-17T06:42:04;9.60;51.60
50548;DHT22;38013;48.810;8.818;2023-03-17T06:44:32;9.60;51.60
50548;DHT22;38013;48.810;8.818;2023-03-17T06:46:58;9.70;51.80
50548;DHT22;38013;48.810;8.818;2023-03-17T06:49:25;9.70;51.90
50548;DHT22;38013;48.810;8.818;2023-03-17T06:51:53;9.70;51.80
50548;DHT22;38013;48.810;8.818;2023-03-17T06:54:19;9.70;51.90
50548;DHT22;38013;48.810;8.818;2023-03-17T06:56:50;9.70;51.90
50548;DHT22;38013;48.810;8.818;2023-03-17T06:59:19;9.80;51.90
50548;DHT22;38013;48.810;8.818;2023-03-17T07:01:46;9.90;52.10
50548;DHT22;38013;48.810;8.818;2023-03-17T07:04:14;10.00;52.40
50548;DHT22;38013;48.810;8.818;2023-03-17T07:06:41;10.00;52.70
50548;DHT22;38013;48.810;8.818;2023-03-17T07:09:08;10.10;52.70
50548;DHT22;38013;48.810;8.818;2023-03-17T07:11:35;10.20;52.70
50548;DHT22;38013;48.810;8.818;2023-03-17T07:14:02;10.20;52.50
50548;DHT22;38013;48.810;8.818;2023-03-17T07:16:29;10.40;52.60
50548;DHT22;38013;48.810;8.818;2023-03-17T07:18:56;10.40;53.10
50548;DHT22;38013;48.810;8.818;2023-03-17T07:21:23;10.40;52.40
50548;DHT22;38013;48.810;8.818;2023-03-17T07:23:50;10.50;52.20
50548;DHT22;38013;48.810;8.818;2023-03-17T07:26:17;10.60;52.10
50548;DHT22;38013;48.810;8.818;2023-03-17T07:28:44;10.60;51.90
50548;DHT22;38013;48.810;8.818;2023-03-17T07:31:12;10.70;51.90
50548;DHT22;38013;48.810;8.818;2023-03-17T07:33:40;10.70;51.90
50548;DHT22;38013;48.810;8.818;2023-03-17T07:36:07;10.80;51.90
50548;DHT22;38013;48.810;8.818;2023-03-17T07:38:34;10.90;52.00
50548;DHT22;38013;48.810;8.818;2023-03-17T07:41:02;10.90;52.10
50548;DHT22;38013;48.810;8.818;2023-03-17T07:43:30;10.90;52.00
50548;DHT22;38013;48.810;8.818;2023-03-17T07:45:57;11.00;52.00
50548;DHT22;38013;48.810;8.818;2023-03-17T07:48:24;11.00;52.00
50548;DHT22;38013;48.810;8.818;2023-03-17T07:50:51;11.00;52.00
50548;DHT22;38013;48.810;8.818;2023-03-17T07:53:18;11.10;52.10
50548;DHT22;38013;48.810;8.818;2023-03-17T07:55:45;11.10;52.00
50548;DHT22;38013;48.810;8.818;2023-03-17T07:58:11;11.20;52.60
50548;DHT22;38013;48.810;8.818;2023-03-17T08:00:41;11.20;52.00
50548;DHT22;38013;48.810;8.818;2023-03-17T08:03:08;11.30;52.20
50548;DHT22;38013;48.810;8.818;2023-03-17T08:05:36;11.40;52.40
50548;DHT22;38013;48.810;8.818;2023-03-17T08:08:03;11.40;52.30
50548;DHT22;38013;48.810;8.818;2023-03-17T08:10:32;11.50;52.10
50548;DHT22;38013;48.810;8.818;2023-03-17T08:12:59;11.60;52.00
50548;DHT22;38013;48.810;8.818;2023-03-17T08:15:26;11.70;51.80
50548;DHT22;38013;48.810;8.818;2023-03-17T08:17:53;11.80;51.90
50548;DHT22;38013;48.810;8.818;2023-03-17T08:20:20;11.80;51.80
50548;DHT22;38013;48.810;8.818;2023-03-17T08:22:47;11.90;51.70
50548;DHT22;38013;48.810;8.818;2023-03-17T08:25:14;11.90;51.40
50548;DHT22;38013;48.810;8.818;2023-03-17T08:27:41;12.00;51.80
50548;DHT22;38013;48.810;8.818;2023-03-17T08:30:08;12.10;51.10
50548;DHT22;38013;48.810;8.818;2023-03-17T08:32:36;12.20;51.20
50548;DHT22;38013;48.810;8.818;2023-03-17T08:35:03;12.20;51.20
50548;DHT22;38013;48.810;8.818;2023-03-17T08:37:31;12.30;51.40
50548;DHT22;38013;48.810;8.818;2023-03-17T08:39:59;12.30;51.50
50548;DHT22;38013;48.810;8.818;2023-03-17T08:42:26;12.40;51.30
50548;DHT22;38013;48.810;8.818;2023-03-17T08:44:53;12.50;51.50
50548;DHT22;38013;48.810;8.818;2023-03-17T08:47:20;12.60;51.60
50548;DHT22;38013;48.810;8.818;2023-03-17T08:49:47;12.70;51.60
50548;DHT22;38013;48.810;8.818;2023-03-17T08:52:14;12.80;51.50
50548;DHT22;38013;48.810;8.818;2023-03-17T08:54:41;12.90;51.50
50548;DHT22;38013;48.810;8.818;2023-03-17T08:57:08;13.00;51.30
50548;DHT22;38013;48.810;8.818;2023-03-17T08:59:35;13.10;51.10
50548;DHT22;38013;48.810;8.818;2023-03-17T09:02:02;13.20;51.00
50548;DHT22;38013;48.810;8.818;2023-03-17T09:04:29;13.30;50.90
50548;DHT22;38013;48.810;8.818;2023-03-17T09:06:56;13.40;50.80
50548;DHT22;38013;48.810;8.818;2023-03-17T09:09:33;13.50;50.60
50548;DHT22;38013;48.810;8.818;2023-03-17T09:12:02;13.60;50.20
50548;DHT22;38013;48.810;8.818;2023-03-17T09:14:34;13.70;50.30
50548;DHT22;38013;48.810;8.818;2023-03-17T09:17:10;13.80;50.10
50548;DHT22;38013;48.810;8.818;2023-03-17T09:19:39;13.90;50.20
50548;DHT22;38013;48.810;8.818;2023-03-17T09:22:12;14.00;50.30
50548;DHT22;38013;48.810;8.818;2023-03-17T09:24:40;14.10;49.70
50548;DHT22;38013;48.810;8.818;2023-03-17T09:27:07;14.20;50.10
50548;DHT22;38013;48.810;8.818;2023-03-17T09:29:34;14.30;49.80
50548;DHT22;38013;48.810;8.818;2023-03-17T09:32:02;14.40;50.00
50548;DHT22;38013;48.810;8.818;2023-03-17T09:34:29;14.50;49.90
50548;DHT22;38013;48.810;8.818;2023-03-17T09:36:56;14.60;49.80
50548;DHT22;38013;48.810;8.818;2023-03-17T09:39:25;14.70;50.00
50548;DHT22;38013;48.810;8.818;2023-03-17T09:44:48;14.90;49.30
50548;DHT22;38013;48.810;8.818;2023-03-17T09:47:51;15.10;49.90
50548;DHT22;38013;48.810;8.818;2023-03-17T09:53:30;15.50;49.10
50548;DHT22;38013;48.810;8.818;2023-03-17T09:56:10;15.70;49.40
50548;DHT22;38013;48.810;8.818;2023-03-17T09:58:41;15.80;48.40
50548;DHT22;38013;48.810;8.818;2023-03-17T10:01:14;16.00;48.90
50548;DHT22;38013;48.810;8.818;2023-03-17T10:03:41;16.20;48.90
50548;DHT22;38013;48.810;8.818;2023-03-17T10:09:35;16.60;47.90
50548;DHT22;38013;48.810;8.818;2023-03-17T10:17:24;17.20;47.30
50548;DHT22;38013;48.810;8.818;2023-03-17T10:19:59;17.40;46.90
50548;DHT22;38013;48.810;8.818;2023-03-17T10:22:33;17.60;46.60
50548;DHT22;38013;48.810;8.818;2023-03-17T10:25:12;17.70;46.50
50548;DHT22;38013;48.810;8.818;2023-03-17T10:27:41;17.90;46.30
50548;DHT22;38013;48.810;8.818;2023-03-17T10:30:15;18.10;46.40
50548;DHT22;38013;48.810;8.818;2023-03-17T10:32:44;18.20;45.70
50548;DHT22;38013;48.810;8.818;2023-03-17T10:35:13;18.30;46.60
50548;DHT22;38013;48.810;8.818;2023-03-17T10:37:44;18.50;45.90
50548;DHT22;38013;48.810;8.818;2023-03-17T10:40:25;18.60;45.80
50548;DHT22;38013;48.810;8.818;2023-03-17T10:43:00;18.70;44.00
50548;DHT22;38013;48.810;8.818;2023-03-17T10:45:32;18.90;44.40
50548;DHT22;38013;48.810;8.818;2023-03-17T10:48:07;19.00;45.00
50548;DHT22;38013;48.810;8.818;2023-03-17T10:50:37;19.20;44.90
50548;DHT22;38013;48.810;8.818;2023-03-17T10:53:08;19.40;44.80
50548;DHT22;38013;48.810;8.818;2023-03-17T10:55:51;19.50;44.80
50548;DHT22;38013;48.810;8.818;2023-03-17T10:58:34;19.70;44.10
50548;DHT22;38013;48.810;8.818;2023-03-17T11:03:48;20.00;43.50
50548;DHT22;38013;48.810;8.818;2023-03-17T11:06:19;20.10;43.80
50548;DHT22;38013;48.810;8.818;2023-03-17T11:08:54;20.20;43.30
50548;DHT22;38013;48.810;8.818;2023-03-17T11:11:26;20.40;43.40
50548;DHT22;38013;48.810;8.818;2023-03-17T11:14:10;20.50;42.70
50548;DHT22;38013;48.810;8.818;2023-03-17T11:22:09;20.80;42.30
50548;DHT22;38013;48.810;8.818;2023-03-17T11:24:46;20.90;42.10
50548;DHT22;38013;48.810;8.818;2023-03-17T11:27:33;20.90;41.70
50548;DHT22;38013;48.810;8.818;2023-03-17T11:30:22;21.10;41.30
50548;DHT22;38013;48.810;8.818;2023-03-17T11:38:57;21.30;41.60
50548;DHT22;38013;48.810;8.818;2023-03-17T11:41:40;21.40;40.90
50548;DHT22;38013;48.810;8.818;2023-03-17T11:44:38;21.40;40.60
50548;DHT22;38013;48.810;8.818;2023-03-17T11:47:33;21.50;41.00
50548;DHT22;38013;48.810;8.818;2023-03-17T11:50:20;21.60;41.30
50548;DHT22;38013;48.810;8.818;2023-03-17T11:56:20;21.90;40.70
50548;DHT22;38013;48.810;8.818;2023-03-17T11:59:04;22.00;40.60
50548;DHT22;38013;48.810;8.818;2023-03-17T12:04:50;22.10;40.30
50548;DHT22;38013;48.810;8.818;2023-03-17T12:07:27;22.20;39.90
50548;DHT22;38013;48.810;8.818;2023-03-17T12:12:53;22.30;39.60
50548;DHT22;38013;48.810;8.818;2023-03-17T12:15:49;22.30;40.60
50548;DHT22;38013;48.810;8.818;2023-03-17T12:18:39;22.30;40.70
50548;DHT22;38013;48.810;8.818;2023-03-17T12:21:24;22.40;40.10
50548;DHT22;38013;48.810;8.818;2023-03-17T12:26:46;22.50;39.80
50548;DHT22;38013;48.810;8.818;2023-03-17T12:29:29;22.50;40.00
50548;DHT22;38013;48.810;8.818;2023-03-17T12:32:19;22.50;39.80
50548;DHT22;38013;48.810;8.818;2023-03-17T12:34:56;22.60;40.40
50548;DHT22;38013;48.810;8.818;2023-03-17T12:37:26;22.60;40.60
50548;DHT22;38013;48.810;8.818;2023-03-17T12:39:58;22.60;40.50
50548;DHT22;38013;48.810;8.818;2023-03-17T12:51:14;22.50;41.00
50548;DHT22;38013;48.810;8.818;2023-03-17T12:54:13;22.40;40.60
50548;DHT22;38013;48.810;8.818;2023-03-17T12:56:46;22.40;40.90
50548;DHT22;38013;48.810;8.818;2023-03-17T12:59:18;22.30;41.10
50548;DHT22;38013;48.810;8.818;2023-03-17T13:02:16;22.30;41.10
50548;DHT22;38013;48.810;8.818;2023-03-17T13:04:51;22.20;41.30
50548;DHT22;38013;48.810;8.818;2023-03-17T13:13:21;22.10;41.50
50548;DHT22;38013;48.810;8.818;2023-03-17T13:16:03;22.10;42.00
50548;DHT22;38013;48.810;8.818;2023-03-17T13:23:53;22.20;41.70
50548;DHT22;38013;48.810;8.818;2023-03-17T13:27:39;22.20;41.50
50548;DHT22;38013;48.810;8.818;2023-03-17T13:29:42;22.30;40.60
50548;DHT22;38013;48.810;8.818;2023-03-17T13:52:12;22.50;41.60
50548;DHT22;38013;48.810;8.818;2023-03-17T13:54:47;22.60;41.30
50548;DHT22;38013;48.810;8.818;2023-03-17T13:57:36;22.70;40.60
50548;DHT22;38013;48.810;8.818;2023-03-17T14:00:20;22.70;40.80
50548;DHT22;38013;48.810;8.818;2023-03-17T14:02:56;22.90;40.60
50548;DHT22;38013;48.810;8.818;2023-03-17T14:05:30;22.90;41.70
50548;DHT22;38013;48.810;8.818;2023-03-17T14:08:03;23.00;40.20
50548;DHT22;38013;48.810;8.818;2023-03-17T14:10:34;23.00;40.80
50548;DHT22;38013;48.810;8.818;2023-03-17T14:13:30;23.00;41.10
50548;DHT22;38013;48.810;8.818;2023-03-17T14:16:25;23.00;40.00
50548;DHT22;38013;48.810;8.818;2023-03-17T14:21:53;22.90;36.60
50548;DHT22;38013;48.810;8.818;2023-03-17T14:24:28;22.90;36.90
50548;DHT22;38013;48.810;8.818;2023-03-17T14:27:04;22.90;35.20
50548;DHT22;38013;48.810;8.818;2023-03-17T14:29:35;22.90;35.70
50548;DHT22;38013;48.810;8.818;2023-03-17T14:32:12;22.80;35.70
50548;DHT22;38013;48.810;8.818;2023-03-17T14:34:56;22.90;35.40
50548;DHT22;38013;48.810;8.818;2023-03-17T14:37:25;22.90;35.60
50548;DHT22;38013;48.810;8.818;2023-03-17T14:39:55;22.90;35.80
50548;DHT22;38013;48.810;8.818;2023-03-17T14:42:28;23.00;35.70
50548;DHT22;38013;48.810;8.818;2023-03-17T14:45:07;23.10;34.80
50548;DHT22;38013;48.810;8.818;2023-03-17T14:47:39;23.20;34.00
50548;DHT22;38013;48.810;8.818;2023-03-17T14:50:27;23.20;36.40
50548;DHT22;38013;48.810;8.818;2023-03-17T14:52:59;23.30;37.80
50548;DHT22;38013;48.810;8.818;2023-03-17T14:55:39;23.40;39.20
50548;DHT22;38013;48.810;8.818;2023-03-17T14:58:20;23.30;40.20
50548;DHT22;38013;48.810;8.818;2023-03-17T15:01:21;23.20;40.00
50548;DHT22;38013;48.810;8.818;2023-03-17T15:03:53;23.10;40.10
50548;DHT22;38013;48.810;8.818;2023-03-17T15:06:29;22.90;40.20
50548;DHT22;38013;48.810;8.818;2023-03-17T15:09:03;22.70;40.00
50548;DHT22;38013;48.810;8.818;2023-03-17T15:11:43;22.50;40.40
50548;DHT22;38013;48.810;8.818;2023-03-17T15:14:17;22.20;40.90
50548;DHT22;38013;48.810;8.818;2023-03-17T15:16:51;22.00;41.50
50548;DHT22;38013;48.810;8.818;2023-03-17T15:19:21;21.80;41.60
50548;DHT22;38013;48.810;8.818;2023-03-17T15:21:54;21.60;41.70
50548;DHT22;38013;48.810;8.818;2023-03-17T15:24:37;21.30;41.90
50548;DHT22;38013;48.810;8.818;2023-03-17T15:27:13;21.10;43.00
50548;DHT22;38013;48.810;8.818;2023-03-17T15:29:41;20.90;43.70
50548;DHT22;38013;48.810;8.818;2023-03-17T15:32:11;20.70;43.40
50548;DHT22;38013;48.810;8.818;2023-03-17T15:34:41;20.60;43.80
50548;DHT22;38013;48.810;8.818;2023-03-17T15:37:16;20.40;43.90
50548;DHT22;38013;48.810;8.818;2023-03-17T15:39:45;20.30;44.40
50548;DHT22;38013;48.810;8.818;2023-03-17T15:42:14;20.20;44.40
50548;DHT22;38013;48.810;8.818;2023-03-17T15:44:44;20.10;45.40
50548;DHT22;38013;48.810;8.818;2023-03-17T15:47:15;20.00;46.20
50548;DHT22;38013;48.810;8.818;2023-03-17T15:49:44;19.90;47.20
50548;DHT22;38013;48.810;8.818;2023-03-17T15:52:16;19.80;47.30
50548;DHT22;38013;48.810;8.818;2023-03-17T15:54:48;19.70;47.40
50548;DHT22;38013;48.810;8.818;2023-03-17T15:57:15;19.70;47.70
50548;DHT22;38013;48.810;8.818;2023-03-17T15:59:42;19.60;47.90
50548;DHT22;38013;48.810;8.818;2023-03-17T16:04:53;19.40;48.60
50548;DHT22;38013;48.810;8.818;2023-03-17T16:07:21;19.40;48.90
50548;DHT22;38013;48.810;8.818;2023-03-17T16:09:48;19.40;48.10
50548;DHT22;38013;48.810;8.818;2023-03-17T16:12:15;19.30;48.20
50548;DHT22;38013;48.810;8.818;2023-03-17T16:14:42;19.30;48.60
50548;DHT22;38013;48.810;8.818;2023-03-17T16:17:17;19.20;48.80
50548;DHT22;38013;48.810;8.818;2023-03-17T16:19:47;19.20;49.70
50548;DHT22;38013;48.810;8.818;2023-03-17T16:22:40;19.20;49.20
50548;DHT22;38013;48.810;8.818;2023-03-17T16:27:47;19.10;50.50
50548;DHT22;38013;48.810;8.818;2023-03-17T16:30:16;19.00;50.20
50548;DHT22;38013;48.810;8.818;2023-03-17T16:32:44;19.00;49.60
50548;DHT22;38013;48.810;8.818;2023-03-17T16:35:29;19.00;49.60
50548;DHT22;38013;48.810;8.818;2023-03-17T16:37:56;18.90;50.20
50548;DHT22;38013;48.810;8.818;2023-03-17T16:40:25;18.90;49.50
50548;DHT22;38013;48.810;8.818;2023-03-17T16:42:54;18.80;49.10
50548;DHT22;38013;48.810;8.818;2023-03-17T16:45:25;18.80;49.10
50548;DHT22;38013;48.810;8.818;2023-03-17T16:47:55;18.70;49.40
50548;DHT22;38013;48.810;8.818;2023-03-17T16:50:24;18.60;49.40
50548;DHT22;38013;48.810;8.818;2023-03-17T16:52:54;18.50;49.30
50548;DHT22;38013;48.810;8.818;2023-03-17T16:55:22;18.40;49.70
50548;DHT22;38013;48.810;8.818;2023-03-17T16:57:51;18.40;50.20
50548;DHT22;38013;48.810;8.818;2023-03-17T17:00:24;18.30;50.40
50548;DHT22;38013;48.810;8.818;2023-03-17T17:02:53;18.20;50.00
50548;DHT22;38013;48.810;8.818;2023-03-17T17:05:23;18.20;50.30
50548;DHT22;38013;48.810;8.818;2023-03-17T17:07:53;18.10;50.40
50548;DHT22;38013;48.810;8.818;2023-03-17T17:10:24;18.10;50.00
50548;DHT22;38013;48.810;8.818;2023-03-17T17:12:53;18.00;50.10
50548;DHT22;38013;48.810;8.818;2023-03-17T17:15:21;18.00;48.40
50548;DHT22;38013;48.810;8.818;2023-03-17T17:17:53;17.90;47.80
50548;DHT22;38013;48.810;8.818;2023-03-17T17:20:35;17.90;47.40
50548;DHT22;38013;48.810;8.818;2023-03-17T17:23:08;17.90;46.70
50548;DHT22;38013;48.810;8.818;2023-03-17T17:25:37;17.80;46.70
50548;DHT22;38013;48.810;8.818;2023-03-17T17:28:04;17.80;46.30
50548;DHT22;38013;48.810;8.818;2023-03-17T17:30:31;17.80;45.80
50548;DHT22;38013;48.810;8.818;2023-03-17T17:33:00;17.70;45.50
50548;DHT22;38013;48.810;8.818;2023-03-17T17:35:29;17.70;45.30
50548;DHT22;38013;48.810;8.818;2023-03-17T17:37:59;17.70;45.30
50548;DHT22;38013;48.810;8.818;2023-03-17T17:40:27;17.70;45.30